createdAt,value
2022-09-25T00:01:34.153Z,100379.72
2022-09-25T00:04:03.928Z,100373.56
2022-09-25T00:06:51.289Z,100371.91
2022-09-25T00:09:21.672Z,100380.91
2022-09-25T00:12:05.230Z,100380.09
2022-09-25T00:14:33.374Z,100382.56
2022-09-25T00:17:01.875Z,100385.22
2022-09-25T00:19:47.479Z,100388.72
2022-09-25T00:22:28.164Z,100381.09
2022-09-25T00:24:56.425Z,100381.09
2022-09-25T00:27:24.391Z,100388.72
2022-09-25T00:29:53.536Z,100377.22
2022-09-25T00:32:21.912Z,100378.06
2022-09-25T00:34:49.943Z,100380.91
2022-09-25T00:37:20.103Z,100386.06
2022-09-25T00:39:48.265Z,100380.72
2022-09-25T00:42:20.227Z,100384.41
2022-09-25T00:44:57.970Z,100377.22
2022-09-25T00:47:39.230Z,100380.91
2022-09-25T00:50:19.982Z,100377.41
2022-09-25T00:52:51.603Z,100376.41
2022-09-25T00:55:19.827Z,100377.41
2022-09-25T00:57:51.765Z,100375.56
2022-09-25T01:00:20.020Z,100373.91
2022-09-25T01:02:54.929Z,100377.69
2022-09-25T01:05:27.804Z,100373.34
2022-09-25T01:08:00.369Z,100370.69
2022-09-25T01:10:29.312Z,100372.34
2022-09-25T01:12:59.189Z,100367.00
2022-09-25T01:15:35.821Z,100366.00
2022-09-25T01:18:14.940Z,100374.00
2022-09-25T01:21:06.436Z,100372.72
2022-09-25T01:24:02.193Z,100371.44
2022-09-25T01:26:50.623Z,100375.75
2022-09-25T01:29:24.768Z,100367.94
2022-09-25T01:32:03.339Z,100372.44
2022-09-25T01:34:41.597Z,100378.63
2022-09-25T01:37:21.624Z,100371.81
2022-09-25T01:39:58.300Z,100378.16
2022-09-25T01:42:31.716Z,100377.78
2022-09-25T01:45:06.284Z,100366.94
2022-09-25T01:47:39.014Z,100379.34
2022-09-25T01:50:15.365Z,100372.59
2022-09-25T01:52:49.073Z,100371.19
2022-09-25T01:55:24.007Z,100362.81
2022-09-25T01:57:58.239Z,100366.72
2022-09-25T02:00:27.856Z,100360.19
2022-09-25T02:03:02.498Z,100361.66
2022-09-25T02:05:35.976Z,100365.97
2022-09-25T02:08:10.380Z,100365.97
2022-09-25T02:10:45.187Z,100358.16
2022-09-25T02:13:34.504Z,100354.84
2022-09-25T02:16:07.158Z,100357.72
2022-09-25T02:18:55.123Z,100347.66
2022-09-25T02:21:37.374Z,100352.81
2022-09-25T02:24:12.821Z,100365.97
2022-09-25T02:26:41.115Z,100361.38
2022-09-25T02:29:10.470Z,100359.78
2022-09-25T02:31:44.553Z,100354.63
2022-09-25T02:34:15.600Z,100356.69
2022-09-25T02:36:44.971Z,100350.34
2022-09-25T02:39:14.921Z,100341.97
2022-09-25T02:41:56.958Z,100348.97
2022-09-25T02:44:50.139Z,100342.25
2022-09-25T02:47:28.863Z,100334.09
2022-09-25T02:50:07.936Z,100334.16
2022-09-25T02:52:42.964Z,100329.44
2022-09-25T02:55:17.171Z,100335.84
2022-09-25T02:57:50.191Z,100326.59
2022-09-25T03:00:24.179Z,100326.41
2022-09-25T03:02:59.649Z,100322.09
2022-09-25T03:05:28.865Z,100325.22
2022-09-25T03:08:15.237Z,100331.00
2022-09-25T03:10:46.274Z,100321.53
2022-09-25T03:13:16.439Z,100331.19
2022-09-25T03:15:47.953Z,100332.63
2022-09-25T03:18:18.298Z,100323.81
2022-09-25T03:20:46.504Z,100318.69
2022-09-25T03:23:14.586Z,100314.41
2022-09-25T03:25:47.441Z,100322.88
2022-09-25T03:28:18.639Z,100317.94
2022-09-25T03:30:57.376Z,100316.91
2022-09-25T03:33:27.696Z,100309.53
2022-09-25T03:36:03.766Z,100302.16
2022-09-25T03:38:33.644Z,100309.56
2022-09-25T03:41:02.158Z,100304.63
2022-09-25T03:43:33.918Z,100308.19
2022-09-25T03:46:01.971Z,100305.72
2022-09-25T03:48:40.568Z,100304.69
2022-09-25T03:51:09.658Z,100300.22
2022-09-25T03:53:38.403Z,100304.94
2022-09-25T03:56:08.517Z,100308.88
2022-09-25T03:58:42.475Z,100297.16
2022-09-25T04:01:11.213Z,100291.59
2022-09-25T04:03:41.231Z,100295.09
2022-09-25T04:06:11.603Z,100290.38
2022-09-25T04:08:41.789Z,100287.72
2022-09-25T04:11:10.592Z,100287.72
2022-09-25T04:13:42.005Z,100283.81
2022-09-25T04:16:10.061Z,100285.50
2022-09-25T04:18:48.551Z,100287.38
2022-09-25T04:21:17.005Z,100286.13
2022-09-25T04:24:06.829Z,100280.81
2022-09-25T04:26:40.218Z,100284.72
2022-09-25T04:29:09.112Z,100288.63
2022-09-25T04:31:40.328Z,100284.13
2022-09-25T04:34:09.419Z,100275.66
2022-09-25T04:36:37.687Z,100272.19
2022-09-25T04:39:06.320Z,100280.22
2022-09-25T04:41:35.209Z,100269.31
2022-09-25T04:44:06.232Z,100276.31
2022-09-25T04:46:34.452Z,100275.06
2022-09-25T04:49:05.740Z,100275.28
2022-09-25T04:51:35.385Z,100276.75
2022-09-25T04:54:06.778Z,100276.91
2022-09-25T04:56:35.319Z,100281.47
2022-09-25T04:59:06.616Z,100278.16
2022-09-25T05:01:35.054Z,100280.22
2022-09-25T05:04:08.318Z,100268.88
2022-09-25T05:06:38.378Z,100273.41
2022-09-25T05:09:06.741Z,100263.50
2022-09-25T05:11:34.917Z,100269.28
2022-09-25T05:14:03.273Z,100258.56
2022-09-25T05:16:31.437Z,100259.41
2022-09-25T05:19:02.428Z,100269.50
2022-09-25T05:21:30.535Z,100258.53
2022-09-25T05:24:00.362Z,100261.22
2022-09-25T05:26:29.803Z,100252.16
2022-09-25T05:28:58.420Z,100254.41
2022-09-25T05:31:26.526Z,100259.38
2022-09-25T05:33:54.663Z,100260.59
2022-09-25T05:36:23.274Z,100267.59
2022-09-25T05:38:51.399Z,100257.47
2022-09-25T05:41:21.255Z,100258.09
2022-09-25T05:43:50.281Z,100253.34
2022-09-25T05:46:18.327Z,100252.94
2022-09-25T05:48:46.455Z,100254.19
2022-09-25T05:51:15.246Z,100251.88
2022-09-25T05:53:43.393Z,100255.56
2022-09-25T05:56:12.027Z,100254.53
2022-09-25T05:58:41.431Z,100247.34
2022-09-25T06:01:09.578Z,100247.94
2022-09-25T06:03:38.990Z,100241.31
2022-09-25T06:06:07.836Z,100251.00
2022-09-25T06:08:39.190Z,100249.34
2022-09-25T06:11:09.620Z,100255.13
2022-09-25T06:13:38.155Z,100256.16
2022-09-25T06:16:15.947Z,100256.13
2022-09-25T06:18:44.438Z,100244.78
2022-09-25T06:21:12.402Z,100248.22
2022-09-25T06:23:40.512Z,100243.91
2022-09-25T06:26:10.320Z,100245.97
2022-09-25T06:28:38.692Z,100245.94
2022-09-25T06:31:07.519Z,100254.81
2022-09-25T06:33:37.252Z,100248.38
2022-09-25T06:36:07.090Z,100250.44
2022-09-25T06:38:35.258Z,100253.31
2022-09-25T06:41:03.479Z,100253.28
2022-09-25T06:43:31.534Z,100258.25
2022-09-25T06:46:03.948Z,100254.28
2022-09-25T06:48:32.654Z,100256.97
2022-09-25T06:51:02.535Z,100251.16
2022-09-25T06:53:31.058Z,100245.41
2022-09-25T06:56:00.967Z,100249.53
2022-09-25T06:58:30.673Z,100258.16
2022-09-25T07:01:00.189Z,100259.34
2022-09-25T07:03:47.656Z,100253.56
2022-09-25T07:06:19.653Z,100261.38
2022-09-25T07:08:49.162Z,100254.78
2022-09-25T07:11:20.053Z,100241.97
2022-09-25T07:13:50.071Z,100243.38
2022-09-25T07:16:20.041Z,100239.44
2022-09-25T07:18:48.510Z,100244.75
2022-09-25T07:21:19.991Z,100239.75
2022-09-25T07:23:49.907Z,100236.03
2022-09-25T07:26:22.575Z,100248.38
2022-09-25T07:28:56.017Z,100250.03
2022-09-25T07:31:26.156Z,100253.31
2022-09-25T07:33:54.616Z,100249.81
2022-09-25T07:36:24.721Z,100252.88
2022-09-25T07:38:53.908Z,100243.56
2022-09-25T07:41:23.815Z,100250.13
2022-09-25T07:44:06.243Z,100249.47
2022-09-25T07:46:43.479Z,100243.72
2022-09-25T07:49:11.729Z,100244.25
2022-09-25T07:51:41.190Z,100247.34
2022-09-25T07:54:09.471Z,100240.47
2022-09-25T07:56:38.447Z,100240.84
2022-09-25T07:59:06.957Z,100228.19
2022-09-25T08:01:39.549Z,100223.44
2022-09-25T08:04:11.706Z,100228.09
2022-09-25T08:06:41.229Z,100226.81
2022-09-25T08:09:10.788Z,100221.38
2022-09-25T08:11:39.585Z,100222.69
2022-09-25T08:14:08.583Z,100216.44
2022-09-25T08:16:37.030Z,100211.13
2022-09-25T08:19:05.231Z,100219.69
2022-09-25T08:21:33.395Z,100206.78
2022-09-25T08:24:03.557Z,100206.00
2022-09-25T08:29:19.956Z,100202.13
2022-09-25T08:31:51.522Z,100197.22
2022-09-25T08:34:39.995Z,100199.38
2022-09-25T08:37:08.392Z,100200.22
2022-09-25T08:39:38.385Z,100195.34
2022-09-25T08:42:06.653Z,100195.34
2022-09-25T08:44:40.159Z,100201.56
2022-09-25T08:47:34.374Z,100193.47
2022-09-25T08:50:06.960Z,100194.06
2022-09-25T08:52:36.528Z,100197.00
2022-09-25T08:55:14.997Z,100197.31
2022-09-25T08:58:02.380Z,100189.47
2022-09-25T09:00:31.020Z,100195.13
2022-09-25T09:03:01.297Z,100195.00
2022-09-25T09:05:34.100Z,100184.94
2022-09-25T09:08:09.633Z,100199.22
2022-09-25T09:10:44.393Z,100195.66
2022-09-25T09:13:19.085Z,100186.56
2022-09-25T09:15:54.258Z,100187.03
2022-09-25T09:18:25.264Z,100180.97
2022-09-25T09:20:55.713Z,100183.25
2022-09-25T09:23:25.298Z,100184.00
2022-09-25T09:26:03.488Z,100183.38
2022-09-25T09:29:03.076Z,100175.09
2022-09-25T09:31:43.830Z,100178.63
2022-09-25T09:34:53.799Z,100176.75
2022-09-25T09:37:31.839Z,100169.13
2022-09-25T09:40:16.845Z,100170.28
2022-09-25T09:42:55.383Z,100178.53
2022-09-25T09:45:29.675Z,100169.03
2022-09-25T09:48:17.021Z,100171.34
2022-09-25T09:50:53.019Z,100172.16
2022-09-25T09:53:30.528Z,100165.38
2022-09-25T09:56:06.406Z,100163.59
2022-09-25T09:58:47.823Z,100161.34
2022-09-25T10:01:42.566Z,100157.09
2022-09-25T10:04:11.938Z,100160.22
2022-09-25T10:06:43.492Z,100154.97
2022-09-25T10:09:16.449Z,100150.69
2022-09-25T10:11:46.365Z,100143.97
2022-09-25T10:14:22.012Z,100143.22
2022-09-25T10:16:52.761Z,100139.69
2022-09-25T10:19:23.612Z,100132.72
2022-09-25T10:21:59.058Z,100139.56
2022-09-25T10:25:06.712Z,100135.81
2022-09-25T10:27:36.737Z,100130.63
2022-09-25T10:30:18.764Z,100129.56
2022-09-25T10:32:57.346Z,100124.25
2022-09-25T10:35:28.882Z,100122.16
2022-09-25T10:37:59.177Z,100114.63
2022-09-25T10:40:31.902Z,100112.47
2022-09-25T10:43:06.521Z,100109.84
2022-09-25T10:45:40.779Z,100101.53
2022-09-25T10:48:44.531Z,100091.59
2022-09-25T10:51:17.424Z,100090.28
2022-09-25T10:53:46.570Z,100085.72
2022-09-25T10:56:20.649Z,100087.03
2022-09-25T10:58:54.961Z,100077.75
2022-09-25T11:01:35.642Z,100076.09
2022-09-25T11:04:18.069Z,100074.44
2022-09-25T11:06:49.286Z,100071.19
2022-09-25T11:09:19.997Z,100069.38
2022-09-25T11:11:50.303Z,100063.50
2022-09-25T11:14:23.093Z,100064.44
2022-09-25T11:16:56.205Z,100053.47
2022-09-25T11:19:29.683Z,100053.78
2022-09-25T11:22:08.249Z,100049.47
2022-09-25T11:25:01.025Z,100052.41
2022-09-25T11:27:36.237Z,100042.09
2022-09-25T11:30:07.734Z,100053.22
2022-09-25T11:32:59.962Z,100041.53
2022-09-25T11:35:47.102Z,100039.91
2022-09-25T11:38:41.752Z,100044.81
2022-09-25T11:41:23.163Z,100034.38
2022-09-25T11:44:07.285Z,100035.00
2022-09-25T11:46:43.117Z,100023.16
2022-09-25T11:49:21.166Z,100018.06
2022-09-25T11:52:16.470Z,100006.97
2022-09-25T11:54:59.627Z,100009.41
2022-09-25T11:57:35.207Z,100004.00
2022-09-25T12:00:14.551Z,100000.47
2022-09-25T12:02:57.512Z,100005.13
2022-09-25T12:05:48.297Z,99994.88
2022-09-25T12:08:29.906Z,99991.38
2022-09-25T12:11:04.063Z,99988.69
2022-09-25T12:13:41.428Z,99991.66
2022-09-25T12:16:20.341Z,99978.66
2022-09-25T12:19:10.948Z,99988.47
2022-09-25T12:21:48.665Z,99979.78
2022-09-25T12:24:32.766Z,99972.97
2022-09-25T12:27:11.073Z,99974.84
2022-09-25T12:30:00.003Z,99965.63
2022-09-25T12:32:41.858Z,99958.25
2022-09-25T12:35:26.950Z,99951.19
2022-09-25T12:38:18.366Z,99958.75
2022-09-25T12:40:52.928Z,99949.50
2022-09-25T12:43:28.288Z,99950.84
2022-09-25T12:46:03.259Z,99943.53
2022-09-25T12:48:37.502Z,99935.16
2022-09-25T12:51:11.860Z,99930.81
2022-09-25T12:53:46.935Z,99931.63
2022-09-25T12:56:19.340Z,99933.03
2022-09-25T12:59:04.532Z,99917.41
2022-09-25T13:01:41.854Z,99918.78
2022-09-25T13:04:35.405Z,99915.03
2022-09-25T13:07:15.482Z,99900.94
2022-09-25T13:09:46.476Z,99900.72
2022-09-25T13:12:28.127Z,99906.13
2022-09-25T13:15:01.387Z,99900.78
2022-09-25T13:17:31.271Z,99895.38
2022-09-25T13:20:48.172Z,99886.97
2022-09-25T13:23:20.412Z,99885.34
2022-09-25T13:25:53.778Z,99883.78
2022-09-25T13:28:24.591Z,99884.03
2022-09-25T13:31:09.131Z,99874.00
2022-09-25T13:33:47.303Z,99878.91
2022-09-25T13:36:31.617Z,99880.50
2022-09-25T13:39:19.793Z,99875.06
2022-09-25T13:41:56.675Z,99877.44
2022-09-25T13:44:52.598Z,99871.44
2022-09-25T13:48:01.717Z,99867.59
2022-09-25T13:50:38.036Z,99867.06
2022-09-25T13:53:25.844Z,99865.75
2022-09-25T13:56:27.458Z,99858.97
2022-09-25T13:59:28.399Z,99860.59
2022-09-25T14:02:00.012Z,99850.59
2022-09-25T14:04:34.870Z,99831.03
2022-09-25T14:07:19.849Z,99835.91
2022-09-25T14:09:51.606Z,99833.72
2022-09-25T14:12:39.247Z,99825.00
2022-09-25T14:15:18.051Z,99821.44
2022-09-25T14:17:46.738Z,99820.03
2022-09-25T14:20:40.937Z,99811.31
2022-09-25T14:23:15.394Z,99804.44
2022-09-25T14:25:47.033Z,99803.59
2022-09-25T14:28:23.769Z,99807.09
2022-09-25T14:31:20.877Z,99803.31
2022-09-25T14:34:13.546Z,99791.41
2022-09-25T14:36:59.121Z,99779.72
2022-09-25T14:39:37.447Z,99782.69
2022-09-25T14:42:29.248Z,99783.47
2022-09-25T14:45:15.725Z,99787.47
2022-09-25T14:47:49.852Z,99779.31
2022-09-25T14:50:23.406Z,99780.34
2022-09-25T14:52:55.686Z,99774.34
2022-09-25T14:55:24.636Z,99769.91
2022-09-25T14:57:54.123Z,99766.63
2022-09-25T15:00:24.694Z,99773.06
2022-09-25T15:02:59.998Z,99768.69
2022-09-25T15:05:35.101Z,99760.28
2022-09-25T15:08:15.592Z,99763.50
2022-09-25T15:10:44.245Z,99756.75
2022-09-25T15:13:17.170Z,99763.19
2022-09-25T15:16:03.902Z,99765.06
2022-09-25T15:18:34.338Z,99765.31
2022-09-25T15:21:02.740Z,99749.63
2022-09-25T15:23:34.963Z,99760.38
2022-09-25T15:26:03.560Z,99749.22
2022-09-25T15:28:41.153Z,99750.81
2022-09-25T15:31:09.612Z,99753.72
2022-09-25T15:33:40.557Z,99752.03
2022-09-25T15:36:17.615Z,99745.97
2022-09-25T15:38:45.907Z,99753.16
2022-09-25T15:41:16.827Z,99750.34
2022-09-25T15:43:45.270Z,99735.69
2022-09-25T15:46:35.529Z,99748.28
2022-09-25T15:49:06.253Z,99734.97
2022-09-25T15:51:37.482Z,99723.00
2022-09-25T15:54:20.322Z,99719.03
2022-09-25T15:56:53.330Z,99728.97
2022-09-25T15:59:25.165Z,99735.56
2022-09-25T16:02:36.219Z,99728.44
2022-09-25T16:05:11.266Z,99713.19
2022-09-25T16:07:40.976Z,99715.75
2022-09-25T16:10:35.070Z,99706.69
2022-09-25T16:13:04.171Z,99712.06
2022-09-25T16:15:51.836Z,99709.81
2022-09-25T16:18:41.086Z,99706.47
2022-09-25T16:21:21.116Z,99713.66
2022-09-25T16:23:56.163Z,99712.75
2022-09-25T16:26:27.333Z,99715.59
2022-09-25T16:29:05.083Z,99705.22
2022-09-25T16:31:36.991Z,99709.25
2022-09-25T16:34:28.750Z,99706.22
2022-09-25T16:37:01.313Z,99702.38
2022-09-25T16:39:36.332Z,99703.78
2022-09-25T16:42:28.330Z,99695.47
2022-09-25T16:45:04.596Z,99696.75
2022-09-25T16:47:34.359Z,99687.88
2022-09-25T16:50:02.518Z,99692.66
2022-09-25T16:52:37.976Z,99687.50
2022-09-25T16:55:11.877Z,99686.13
2022-09-25T16:57:45.303Z,99689.06
2022-09-25T17:00:20.016Z,99682.19
2022-09-25T17:02:49.333Z,99688.38
2022-09-25T17:05:23.491Z,99687.81
2022-09-25T17:07:54.825Z,99678.69
2022-09-25T17:10:24.905Z,99674.13
2022-09-25T17:12:54.522Z,99674.63
2022-09-25T17:15:26.350Z,99667.38
2022-09-25T17:17:55.265Z,99664.41
2022-09-25T17:20:25.738Z,99659.53
2022-09-25T17:22:56.496Z,99651.22
2022-09-25T17:25:40.292Z,99659.38
2022-09-25T17:28:10.310Z,99659.13
2022-09-25T17:30:38.791Z,99661.00
2022-09-25T17:33:07.317Z,99651.88
2022-09-25T17:35:41.346Z,99643.78
2022-09-25T17:38:13.352Z,99647.06
2022-09-25T17:40:44.045Z,99641.44
2022-09-25T17:43:14.014Z,99642.25
2022-09-25T17:45:49.104Z,99642.84
2022-09-25T17:48:18.818Z,99635.53
2022-09-25T17:50:47.034Z,99632.06
2022-09-25T17:53:19.996Z,99630.44
2022-09-25T17:55:53.367Z,99625.59
2022-09-25T17:58:23.546Z,99618.84
2022-09-25T18:00:52.879Z,99624.47
2022-09-25T18:03:22.405Z,99614.53
2022-09-25T18:08:58.248Z,99615.16
2022-09-25T18:11:27.326Z,99607.38
2022-09-25T18:14:05.524Z,99609.16
2022-09-25T18:16:36.345Z,99606.34
2022-09-25T18:19:22.087Z,99613.63
2022-09-25T18:22:25.343Z,99609.00
2022-09-25T18:24:59.701Z,99608.78
2022-09-25T18:27:29.924Z,99607.34
2022-09-25T18:29:58.309Z,99611.78
2022-09-25T18:32:27.093Z,99604.72
2022-09-25T18:34:55.216Z,99606.50
2022-09-25T18:37:23.453Z,99604.53
2022-09-25T18:39:51.725Z,99606.88
2022-09-25T18:42:21.164Z,99601.09
2022-09-25T18:44:49.144Z,99603.34
2022-09-25T18:47:17.983Z,99598.59
2022-09-25T18:49:46.077Z,99595.09
2022-09-25T18:52:14.093Z,99596.38
2022-09-25T18:54:42.791Z,99589.53
2022-09-25T18:57:11.607Z,99593.84
2022-09-25T18:59:41.421Z,99584.28
2022-09-25T19:02:20.497Z,99577.50
2022-09-25T19:04:49.358Z,99570.16
2022-09-25T19:07:17.392Z,99569.22
2022-09-25T19:09:45.364Z,99564.59
2022-09-25T19:12:17.126Z,99559.13
2022-09-25T19:14:47.451Z,99563.09
2022-09-25T19:17:16.405Z,99558.19
2022-09-25T19:19:44.645Z,99560.31
2022-09-25T19:22:18.498Z,99549.00
2022-09-25T19:24:47.062Z,99548.66
2022-09-25T19:27:16.973Z,99547.00
2022-09-25T19:29:47.352Z,99542.69
2022-09-25T19:32:17.432Z,99548.06
2022-09-25T19:34:45.858Z,99542.94
2022-09-25T19:37:14.176Z,99536.41
2022-09-25T19:39:59.666Z,99536.31
2022-09-25T19:42:34.452Z,99533.28
2022-09-25T19:45:14.096Z,99531.06
2022-09-25T19:47:42.193Z,99528.28
2022-09-25T19:50:12.589Z,99527.13
2022-09-25T19:52:40.651Z,99523.03
2022-09-25T19:55:09.324Z,99524.09
2022-09-25T19:57:40.444Z,99527.59
2022-09-25T20:00:11.613Z,99522.94
2022-09-25T20:02:44.201Z,99525.84
2022-09-25T20:05:12.311Z,99529.00
2022-09-25T20:07:40.608Z,99525.72
2022-09-25T20:10:08.953Z,99517.91
2022-09-25T20:12:37.086Z,99511.50
2022-09-25T20:15:05.652Z,99511.75
2022-09-25T20:17:35.152Z,99512.78
2022-09-25T20:20:04.167Z,99510.91
2022-09-25T20:22:32.582Z,99502.56
2022-09-25T20:25:00.934Z,99508.16
2022-09-25T20:27:29.230Z,99497.06
2022-09-25T20:29:57.243Z,99502.19
2022-09-25T20:32:25.916Z,99497.28
2022-09-25T20:34:56.058Z,99492.41
2022-09-25T20:37:24.282Z,99486.72
2022-09-25T20:39:52.617Z,99485.66
2022-09-25T20:42:21.449Z,99482.16
2022-09-25T20:44:49.614Z,99482.97
2022-09-25T20:47:18.496Z,99472.72
2022-09-25T20:49:47.221Z,99472.13
2022-09-25T20:52:17.173Z,99479.94
2022-09-25T20:54:45.182Z,99467.81
2022-09-25T20:57:13.322Z,99464.78
2022-09-25T20:59:41.457Z,99465.59
2022-09-25T21:02:11.833Z,99461.50
2022-09-25T21:04:40.056Z,99467.22
2022-09-25T21:07:10.906Z,99461.63
2022-09-25T21:09:45.170Z,99452.78
2022-09-25T21:12:14.477Z,99443.09
2022-09-25T21:14:42.488Z,99448.22
2022-09-25T21:17:12.195Z,99435.28
2022-09-25T21:19:40.803Z,99436.09
2022-09-25T21:22:12.410Z,99428.88
2022-09-25T21:24:41.063Z,99436.91
2022-09-25T21:27:10.600Z,99431.19
2022-09-25T21:29:38.615Z,99435.50
2022-09-25T21:32:07.443Z,99420.97
2022-09-25T21:34:38.602Z,99427.22
2022-09-25T21:37:06.603Z,99416.28
2022-09-25T21:39:35.160Z,99419.53
2022-09-25T21:42:04.957Z,99421.16
2022-09-25T21:44:39.006Z,99413.59
2022-09-25T21:47:07.084Z,99411.50
2022-09-25T21:49:35.644Z,99408.59
2022-09-25T21:52:06.877Z,99406.13
2022-09-25T21:54:35.097Z,99398.91
2022-09-25T21:57:03.166Z,99399.13
2022-09-25T21:59:31.300Z,99394.81
2022-09-25T22:02:02.202Z,99385.16
2022-09-25T22:04:30.179Z,99390.50
2022-09-25T22:07:01.761Z,99385.16
2022-09-25T22:55:24.135Z,99333.56
2022-09-25T22:57:55.736Z,99331.72
2022-09-25T23:00:23.820Z,99326.34
2022-09-25T23:02:58.553Z,99321.22
2022-09-25T23:06:04.112Z,99313.75
2022-09-25T23:09:09.552Z,99317.00
2022-09-25T23:12:14.747Z,99309.44
2022-09-25T23:15:20.107Z,99303.03
2022-09-25T23:18:25.317Z,99295.00
2022-09-25T23:21:30.789Z,99305.72
2022-09-25T23:24:36.354Z,99295.00
2022-09-25T23:27:41.835Z,99297.09
2022-09-25T23:30:47.821Z,99288.00
2022-09-25T23:33:54.058Z,99281.00
2022-09-25T23:36:59.775Z,99278.78
2022-09-25T23:40:05.242Z,99283.00
2022-09-25T23:43:10.721Z,99276.81
2022-09-25T23:46:16.478Z,99273.56
2022-09-25T23:49:22.075Z,99266.47
2022-09-25T23:52:27.919Z,99264.28
2022-09-25T23:55:33.501Z,99258.53
2022-09-25T23:58:39.149Z,99256.81
